Waverly, Ohio
Current Conditions -  °F | °C
As of 3:54 PM on Thursday 27 Nov 2014 (Local Time) from KRZT Reporting Station
Overcast Overcast  
Wind Chill: 22°   Ceiling: 4500
Heat Index: 32°   Visibility: 10mi
Dew Point: 21°   Wind: 15mph
Humidity: 64%   Direction: 300°WNW
Pressure: 30.25"   Gusts: NA
Location:  39.13°N, 82.99°W
Report Text: KRZT 272054Z AUTO 30013KT 10SM BKN045 OVC100 00/M06 A3025 RMK AO2
Loading
Personal Weather Stations






























Interactive Weather Map New forecast layout! Learn more

10-Day Weather Forecast

Advertisements
Track Severe Weather on mobile